createdAt,value
2017-04-18T00:00:05.697Z,928.32
2017-04-18T00:01:18.940Z,928.31
2017-04-18T00:02:32.401Z,928.33
2017-04-18T00:03:45.633Z,928.27
2017-04-18T00:04:58.880Z,928.33
2017-04-18T00:06:12.150Z,928.25
2017-04-18T00:07:25.432Z,928.37
2017-04-18T00:08:38.705Z,928.36
2017-04-18T00:09:51.940Z,928.25
2017-04-18T00:11:04.165Z,928.3
2017-04-18T00:12:17.394Z,928.23
2017-04-18T00:13:30.648Z,928.23
2017-04-18T00:14:43.888Z,928.33
2017-04-18T00:15:57.138Z,928.39
2017-04-18T00:17:10.575Z,928.37
2017-04-18T00:18:24.033Z,928.39
2017-04-18T00:19:37.257Z,928.35
2017-04-18T00:20:50.488Z,928.35
2017-04-18T00:22:03.705Z,928.36
2017-04-18T00:23:16.938Z,928.41
2017-04-18T00:24:30.194Z,928.47
2017-04-18T00:25:43.429Z,928.37
2017-04-18T00:26:56.636Z,928.44
2017-04-18T00:28:09.883Z,928.42
2017-04-18T00:29:22.606Z,928.34
2017-04-18T00:30:35.858Z,928.27
2017-04-18T00:31:48.593Z,928.3
2017-04-18T00:33:01.873Z,928.29
2017-04-18T00:34:15.236Z,928.24
2017-04-18T00:35:28.476Z,928.29
2017-04-18T00:36:41.667Z,928.32
2017-04-18T00:37:54.899Z,928.36
2017-04-18T00:39:07.139Z,928.35
2017-04-18T00:40:20.375Z,928.38
2017-04-18T00:41:33.586Z,928.36
2017-04-18T00:42:46.845Z,928.41
2017-04-18T00:44:00.069Z,928.36
2017-04-18T00:45:13.283Z,928.4
2017-04-18T00:46:26.529Z,928.41
2017-04-18T00:47:39.784Z,928.42
2017-04-18T00:48:51.998Z,928.45
2017-04-18T00:50:05.194Z,928.44
2017-04-18T00:51:17.894Z,928.46
2017-04-18T00:52:30.595Z,928.37
2017-04-18T00:53:43.833Z,928.47
2017-04-18T00:54:57.091Z,928.45
2017-04-18T00:56:10.311Z,928.49
2017-04-18T00:57:23.542Z,928.44
2017-04-18T00:58:36.784Z,928.45
2017-04-18T00:59:50.025Z,928.45
2017-04-18T01:01:03.286Z,928.46
2017-04-18T01:02:16.519Z,928.45
2017-04-18T01:03:29.786Z,928.55
2017-04-18T01:04:43.045Z,928.52
2017-04-18T01:05:56.279Z,928.51
2017-04-18T01:07:09.000Z,928.52
2017-04-18T01:08:22.256Z,928.52
2017-04-18T01:09:35.016Z,928.36
2017-04-18T01:10:48.271Z,928.5
2017-04-18T01:12:01.517Z,928.47
2017-04-18T01:13:14.741Z,928.47
2017-04-18T01:14:27.957Z,928.56
2017-04-18T01:15:40.649Z,928.53
2017-04-18T01:16:53.892Z,928.48
2017-04-18T01:18:07.100Z,928.47
2017-04-18T01:19:20.344Z,928.54
2017-04-18T01:20:33.031Z,928.5
2017-04-18T01:21:46.306Z,928.52
2017-04-18T01:22:59.870Z,928.48
2017-04-18T01:24:13.108Z,928.41
2017-04-18T01:25:26.333Z,928.41
2017-04-18T01:26:39.578Z,928.4
2017-04-18T01:27:52.808Z,928.41
2017-04-18T01:29:06.103Z,928.43
2017-04-18T01:30:19.341Z,928.37
2017-04-18T01:31:32.557Z,928.45
2017-04-18T01:32:45.749Z,928.4
2017-04-18T01:33:58.973Z,928.38
2017-04-18T01:35:12.215Z,928.45
2017-04-18T01:36:24.925Z,928.45
2017-04-18T01:37:38.449Z,928.37
2017-04-18T01:38:51.688Z,928.42
2017-04-18T01:40:04.924Z,928.28
2017-04-18T01:41:18.136Z,928.4
2017-04-18T01:42:30.837Z,928.35
2017-04-18T01:43:43.555Z,928.38
2017-04-18T01:44:56.753Z,928.33
2017-04-18T01:46:09.475Z,928.2
2017-04-18T01:47:22.750Z,928.37
2017-04-18T01:48:35.971Z,928.38
2017-04-18T01:49:49.225Z,928.33
2017-04-18T01:51:02.463Z,928.29
2017-04-18T01:52:15.681Z,928.17
2017-04-18T01:53:29.280Z,928.26
2017-04-18T01:54:42.947Z,928.23
2017-04-18T01:55:56.254Z,928.25
2017-04-18T01:57:09.464Z,928.24
2017-04-18T01:58:22.710Z,928.22
2017-04-18T01:59:35.934Z,928.28
2017-04-18T02:00:49.147Z,928.21
2017-04-18T02:02:02.362Z,928.28
2017-04-18T02:03:15.601Z,928.29
2017-04-18T02:04:28.841Z,928.22
2017-04-18T02:05:41.537Z,928.11
2017-04-18T02:06:54.767Z,928.19
2017-04-18T02:08:08.010Z,928.17
2017-04-18T02:09:21.329Z,928.14
2017-04-18T02:10:34.705Z,928.19
2017-04-18T02:11:48.162Z,928.23
2017-04-18T02:13:01.396Z,928.26
2017-04-18T02:14:14.636Z,928.3
2017-04-18T02:15:27.863Z,928.21
2017-04-18T02:16:41.129Z,928.17
2017-04-18T02:17:53.852Z,928.23
2017-04-18T02:19:07.112Z,928.22
2017-04-18T02:20:20.413Z,928.18
2017-04-18T02:21:33.157Z,928.18
2017-04-18T02:22:46.406Z,928.17
2017-04-18T02:23:59.659Z,928.27
2017-04-18T02:25:12.919Z,928.21
2017-04-18T02:26:26.157Z,928.24
2017-04-18T02:27:38.859Z,928.23
2017-04-18T02:28:51.584Z,928.25
2017-04-18T02:30:04.885Z,928.28
2017-04-18T02:31:17.628Z,928.28
2017-04-18T02:32:30.871Z,928.28
2017-04-18T02:33:43.595Z,928.27
2017-04-18T02:34:56.317Z,928.29
2017-04-18T02:36:09.059Z,928.28
2017-04-18T02:37:22.268Z,928.31
2017-04-18T02:38:35.520Z,928.29
2017-04-18T02:39:48.747Z,928.31
2017-04-18T02:41:01.991Z,928.26
2017-04-18T02:42:15.230Z,928.31
2017-04-18T02:43:28.446Z,928.33
2017-04-18T02:44:41.177Z,928.36
2017-04-18T02:45:54.381Z,928.39
2017-04-18T02:47:07.573Z,928.39
2017-04-18T02:48:20.918Z,928.38
2017-04-18T02:49:34.131Z,928.33
2017-04-18T02:50:46.844Z,928.32
2017-04-18T02:52:00.075Z,928.34
2017-04-18T02:53:13.288Z,928.28
2017-04-18T02:54:26.548Z,928.23
2017-04-18T02:55:39.274Z,928.35
2017-04-18T02:56:52.560Z,928.38
2017-04-18T02:58:05.768Z,928.39
2017-04-18T02:59:18.971Z,928.35
2017-04-18T03:00:32.191Z,928.43
2017-04-18T03:01:45.444Z,928.39
2017-04-18T03:02:58.467Z,928.35
2017-04-18T03:04:11.736Z,928.33
2017-04-18T03:05:24.430Z,928.3
2017-04-18T03:06:37.183Z,928.25
2017-04-18T03:07:50.425Z,928.22
2017-04-18T03:09:03.624Z,928.24
2017-04-18T03:10:16.859Z,928.16
2017-04-18T03:11:30.103Z,928.19
2017-04-18T03:12:43.318Z,928.23
2017-04-18T03:13:56.588Z,928.2
2017-04-18T03:15:09.802Z,928.23
2017-04-18T03:16:23.009Z,928.21
2017-04-18T03:17:36.241Z,928.2
2017-04-18T03:18:49.525Z,928.2
2017-04-18T03:20:02.739Z,928.25
2017-04-18T03:21:16.166Z,928.29
2017-04-18T03:22:28.886Z,928.23
2017-04-18T03:23:42.126Z,928.25
2017-04-18T03:24:55.348Z,928.2
2017-04-18T03:26:08.584Z,928.15
2017-04-18T03:27:21.874Z,928.22
2017-04-18T03:28:35.109Z,928.21
2017-04-18T03:29:48.346Z,928.23
2017-04-18T03:31:01.576Z,928.24
2017-04-18T03:32:14.758Z,928.25
2017-04-18T03:33:28.009Z,928.25
2017-04-18T03:34:41.237Z,928.24
2017-04-18T03:35:54.586Z,928.22
2017-04-18T03:37:07.974Z,928.2
2017-04-18T03:38:21.209Z,928.21
2017-04-18T03:39:34.421Z,928.18
2017-04-18T03:40:47.137Z,928.21
2017-04-18T03:42:00.386Z,928.21
2017-04-18T03:43:13.161Z,928.24
2017-04-18T03:44:26.401Z,928.26
2017-04-18T03:45:39.640Z,928.24
2017-04-18T03:46:52.915Z,928.22
2017-04-18T03:48:05.666Z,928.25
2017-04-18T03:49:18.889Z,928.25
2017-04-18T03:50:31.612Z,928.23
2017-04-18T03:51:44.853Z,928.21
2017-04-18T03:52:58.323Z,928.17
2017-04-18T03:54:11.029Z,928.11
2017-04-18T03:55:24.327Z,928.16
2017-04-18T03:56:37.580Z,928.17
2017-04-18T03:57:50.798Z,928.15
2017-04-18T03:59:04.039Z,928.1
2017-04-18T04:00:17.297Z,928.13
2017-04-18T04:01:30.530Z,928.07
2017-04-18T04:02:43.743Z,928.08
2017-04-18T04:03:56.956Z,928.07
2017-04-18T04:05:10.215Z,928.07
2017-04-18T04:06:23.460Z,928.05
2017-04-18T04:07:36.736Z,928.05
2017-04-18T04:08:50.342Z,928.02
2017-04-18T04:10:03.591Z,928.03
2017-04-18T04:11:16.449Z,928.01
2017-04-18T04:12:29.698Z,928.02
2017-04-18T04:13:42.921Z,928.04
2017-04-18T04:14:55.671Z,928.01
2017-04-18T04:16:08.935Z,927.97
2017-04-18T04:17:22.171Z,928
2017-04-18T04:18:34.904Z,928.02
2017-04-18T04:19:48.209Z,927.93
2017-04-18T04:21:01.430Z,927.96
2017-04-18T04:22:14.637Z,927.93
2017-04-18T04:23:27.380Z,927.91
2017-04-18T04:24:40.590Z,927.98
2017-04-18T04:25:53.958Z,927.97
2017-04-18T04:27:07.434Z,927.97
2017-04-18T04:28:20.649Z,927.9
2017-04-18T04:29:33.891Z,927.82
2017-04-18T04:30:47.136Z,927.87
2017-04-18T04:32:00.424Z,927.81
2017-04-18T04:33:13.127Z,927.81
2017-04-18T04:34:26.355Z,927.86
2017-04-18T04:35:39.078Z,927.82
2017-04-18T04:36:52.297Z,927.76
2017-04-18T04:38:05.627Z,927.72
2017-04-18T04:39:18.875Z,927.74
2017-04-18T04:40:32.093Z,927.75
2017-04-18T04:41:45.370Z,927.72
2017-04-18T04:42:58.631Z,927.71
2017-04-18T04:44:12.277Z,927.72
2017-04-18T04:45:25.046Z,927.73
2017-04-18T04:46:38.476Z,927.69
2017-04-18T04:47:51.241Z,927.68
2017-04-18T04:49:04.476Z,927.68
2017-04-18T04:50:17.730Z,927.67
2017-04-18T04:51:30.992Z,927.68
2017-04-18T04:52:44.242Z,927.64
2017-04-18T04:53:56.994Z,927.61
2017-04-18T04:55:09.687Z,927.57
2017-04-18T04:56:22.428Z,927.56
2017-04-18T04:57:35.655Z,927.55
2017-04-18T04:58:48.891Z,927.56
2017-04-18T05:00:02.144Z,927.55
2017-04-18T05:01:15.428Z,927.51
2017-04-18T05:02:28.818Z,927.54
2017-04-18T05:03:42.029Z,927.54
2017-04-18T05:04:55.369Z,927.5
2017-04-18T05:06:08.645Z,927.46
2017-04-18T05:07:21.902Z,927.49
2017-04-18T05:08:35.164Z,927.5
2017-04-18T05:09:48.443Z,927.41
2017-04-18T05:11:01.181Z,927.43
2017-04-18T05:12:13.935Z,927.4
2017-04-18T05:13:27.166Z,927.4
2017-04-18T05:14:39.907Z,927.37
2017-04-18T05:15:53.116Z,927.32
2017-04-18T05:17:06.365Z,927.33
2017-04-18T05:18:19.611Z,927.32
2017-04-18T05:19:33.259Z,927.3
2017-04-18T05:20:46.507Z,927.33
2017-04-18T05:21:59.857Z,927.32
2017-04-18T05:23:13.071Z,927.22
2017-04-18T05:24:25.777Z,927.27
2017-04-18T05:25:38.985Z,927.25
2017-04-18T05:26:52.228Z,927.29
2017-04-18T05:28:05.463Z,927.29
2017-04-18T05:29:18.184Z,927.25
2017-04-18T05:30:31.471Z,927.26
2017-04-18T05:31:44.187Z,927.24
2017-04-18T05:32:57.407Z,927.24
2017-04-18T05:34:10.634Z,927.25
2017-04-18T05:35:23.863Z,927.27
2017-04-18T05:36:37.108Z,927.23
2017-04-18T05:37:50.353Z,927.24
2017-04-18T05:39:03.143Z,927.24
2017-04-18T05:40:16.137Z,927.25
2017-04-18T05:41:29.349Z,927.23
2017-04-18T05:42:42.580Z,927.22
2017-04-18T05:43:55.852Z,927.08
2017-04-18T05:45:09.102Z,927.1
2017-04-18T05:46:22.384Z,927.08
2017-04-18T05:47:34.566Z,927.08
2017-04-18T05:48:47.828Z,927.1
2017-04-18T05:50:01.118Z,927.08
2017-04-18T05:51:14.371Z,927.06
2017-04-18T05:52:27.602Z,927.04
2017-04-18T05:53:40.334Z,927.07
2017-04-18T05:54:52.526Z,926.94
2017-04-18T05:56:05.741Z,927.03
2017-04-18T05:57:18.990Z,927.02
2017-04-18T05:58:32.269Z,926.98
2017-04-18T05:59:45.275Z,926.96
2017-04-18T06:00:58.758Z,926.95
2017-04-18T06:02:12.054Z,926.94
2017-04-18T06:03:25.270Z,926.96
2017-04-18T06:04:38.527Z,926.96
2017-04-18T06:05:51.788Z,926.95
2017-04-18T06:07:04.505Z,926.92
2017-04-18T06:08:17.719Z,926.96
2017-04-18T06:09:30.974Z,926.88
2017-04-18T06:10:44.191Z,926.93
2017-04-18T06:11:57.435Z,926.88
2017-04-18T06:13:10.718Z,926.93
2017-04-18T06:14:23.925Z,926.94
2017-04-18T06:15:37.214Z,926.97
2017-04-18T06:16:50.434Z,926.94
2017-04-18T06:18:03.643Z,926.92
2017-04-18T06:19:17.222Z,926.91
2017-04-18T06:20:30.472Z,926.92
2017-04-18T06:21:43.693Z,926.83
2017-04-18T06:22:56.933Z,926.81
2017-04-18T06:24:10.189Z,926.86
2017-04-18T06:25:22.943Z,926.76
2017-04-18T06:26:36.144Z,926.86
2017-04-18T06:27:49.416Z,926.9
2017-04-18T06:29:02.645Z,926.87
2017-04-18T06:30:15.837Z,926.84
2017-04-18T06:31:29.044Z,926.89
2017-04-18T06:32:40.215Z,926.84
2017-04-18T06:33:53.472Z,926.84
2017-04-18T06:35:06.695Z,926.87
2017-04-18T06:36:19.399Z,926.86
2017-04-18T06:37:32.132Z,926.85
2017-04-18T06:38:45.381Z,926.82
2017-04-18T06:39:58.594Z,926.83
2017-04-18T06:41:11.821Z,926.82
2017-04-18T06:42:24.032Z,926.79
2017-04-18T06:43:37.270Z,926.83
2017-04-18T06:44:50.522Z,926.82
2017-04-18T06:46:03.730Z,926.8
2017-04-18T06:47:16.982Z,926.78
2017-04-18T06:48:30.238Z,926.79
2017-04-18T06:49:43.481Z,926.77
2017-04-18T06:50:55.680Z,926.8
2017-04-18T06:52:08.893Z,926.79
2017-04-18T06:53:19.562Z,926.8
2017-04-18T06:54:32.803Z,926.75
2017-04-18T06:55:46.018Z,926.73
2017-04-18T06:56:58.742Z,926.75
2017-04-18T06:58:12.173Z,926.8
2017-04-18T06:59:25.597Z,926.81
2017-04-18T07:00:38.923Z,926.75
2017-04-18T07:01:52.168Z,926.76
2017-04-18T07:03:03.869Z,926.72
2017-04-18T07:04:17.084Z,926.75
2017-04-18T07:05:30.314Z,926.71
2017-04-18T07:06:43.556Z,926.71
2017-04-18T07:07:56.793Z,926.72
2017-04-18T07:09:09.518Z,926.69
2017-04-18T07:10:21.769Z,926.68
2017-04-18T07:11:34.989Z,926.69
2017-04-18T07:12:46.684Z,926.71
2017-04-18T07:13:57.873Z,926.74
2017-04-18T07:15:11.097Z,926.67
2017-04-18T07:16:24.377Z,926.72
2017-04-18T07:17:37.605Z,926.73
2017-04-18T07:18:50.941Z,926.73
2017-04-18T07:20:04.175Z,926.72
2017-04-18T07:21:17.437Z,926.76
2017-04-18T07:22:29.161Z,926.74
2017-04-18T07:23:39.833Z,926.73
2017-04-18T07:24:52.066Z,926.81
2017-04-18T07:26:04.857Z,926.81
2017-04-18T07:27:18.069Z,926.83
2017-04-18T07:28:30.784Z,926.82
2017-04-18T07:29:43.521Z,926.86
2017-04-18T07:30:56.739Z,926.85
2017-04-18T07:32:09.971Z,926.79
2017-04-18T07:33:20.633Z,926.83
2017-04-18T07:34:33.383Z,926.78
2017-04-18T07:35:45.112Z,926.78
2017-04-18T07:36:57.829Z,926.77
2017-04-18T07:38:11.125Z,926.78
2017-04-18T07:39:23.295Z,926.8
2017-04-18T07:40:36.546Z,926.76
2017-04-18T07:41:49.294Z,926.8
2017-04-18T07:43:00.474Z,926.8
2017-04-18T07:44:11.664Z,926.84
2017-04-18T07:45:23.405Z,926.82
2017-04-18T07:46:34.071Z,926.87
2017-04-18T07:47:45.784Z,926.93
2017-04-18T07:48:58.481Z,926.96
2017-04-18T07:50:11.176Z,926.91
2017-04-18T07:51:23.902Z,926.95
2017-04-18T07:52:35.112Z,926.93
2017-04-18T07:53:46.897Z,926.95
2017-04-18T07:54:58.626Z,926.98
2017-04-18T07:56:10.366Z,926.99
2017-04-18T07:57:22.280Z,926.96
2017-04-18T07:58:34.042Z,926.99
2017-04-18T07:59:45.205Z,927.01
2017-04-18T08:00:58.408Z,926.92
2017-04-18T08:02:11.145Z,927.01
2017-04-18T08:03:23.863Z,927.04
2017-04-18T08:04:36.599Z,927.08
2017-04-18T08:05:49.331Z,927.06
2017-04-18T08:07:02.539Z,927.06
2017-04-18T08:08:15.269Z,927.11
2017-04-18T08:09:28.055Z,927.08
2017-04-18T08:10:41.317Z,927.07
2017-04-18T08:11:54.563Z,927.18
2017-04-18T08:13:07.261Z,927.17
2017-04-18T08:14:19.152Z,927.19
2017-04-18T08:15:31.957Z,927.18
2017-04-18T08:16:45.207Z,927.17
2017-04-18T08:17:57.965Z,927.11
2017-04-18T08:19:10.175Z,927.12
2017-04-18T08:20:23.423Z,927.1
2017-04-18T08:21:36.626Z,927.14
2017-04-18T08:22:48.835Z,927.12
2017-04-18T08:24:02.083Z,927.15
2017-04-18T08:25:15.316Z,927.18
2017-04-18T08:26:28.033Z,927.14
2017-04-18T08:27:40.273Z,927.23
2017-04-18T08:28:53.564Z,927.24
2017-04-18T08:30:06.535Z,927.16
2017-04-18T08:31:19.251Z,927.26
2017-04-18T08:32:30.457Z,927.31
2017-04-18T08:33:42.685Z,927.31
2017-04-18T08:34:54.893Z,927.26
2017-04-18T08:36:07.585Z,927.33
2017-04-18T08:37:20.776Z,927.32
2017-04-18T08:38:34.009Z,927.28
2017-04-18T08:39:46.248Z,927.34
2017-04-18T08:40:59.512Z,927.37
2017-04-18T08:42:12.757Z,927.39
2017-04-18T08:43:25.993Z,927.42
2017-04-18T08:44:38.694Z,927.41
2017-04-18T08:45:51.962Z,927.46
2017-04-18T08:47:05.222Z,927.46
2017-04-18T08:48:17.946Z,927.47
2017-04-18T08:49:31.185Z,927.48
2017-04-18T08:50:43.895Z,927.47
2017-04-18T08:51:56.622Z,927.45
2017-04-18T08:53:09.876Z,927.47
2017-04-18T08:54:21.071Z,927.44
2017-04-18T08:55:32.355Z,927.46
2017-04-18T08:56:43.017Z,927.46
2017-04-18T08:57:53.724Z,927.47
2017-04-18T08:59:04.405Z,927.52
2017-04-18T09:00:17.095Z,927.52
2017-04-18T09:01:29.848Z,927.59
2017-04-18T09:02:42.597Z,927.55
2017-04-18T09:03:55.883Z,927.56
2017-04-18T09:05:08.570Z,927.65
2017-04-18T09:06:21.794Z,927.6
2017-04-18T09:07:35.039Z,927.6
2017-04-18T09:08:48.266Z,927.68
2017-04-18T09:10:01.473Z,927.7
2017-04-18T09:11:13.650Z,927.75
2017-04-18T09:12:26.346Z,927.64
2017-04-18T09:13:39.601Z,927.78
2017-04-18T09:14:52.847Z,927.64
2017-04-18T09:16:05.585Z,927.83
2017-04-18T09:17:18.824Z,927.87
2017-04-18T09:18:31.141Z,927.94
2017-04-18T09:19:45.173Z,927.95
2017-04-18T09:20:58.010Z,927.96
2017-04-18T09:22:11.919Z,927.96
2017-04-18T09:23:25.836Z,927.91
2017-04-18T09:24:39.232Z,927.95
2017-04-18T09:25:52.047Z,927.89
2017-04-18T09:27:06.009Z,927.84
2017-04-18T09:28:19.387Z,927.99
2017-04-18T09:29:32.743Z,927.94
2017-04-18T09:30:46.735Z,927.92
2017-04-18T09:32:00.928Z,927.98
2017-04-18T09:33:14.866Z,928.02
2017-04-18T09:34:28.833Z,927.93
2017-04-18T09:35:42.781Z,928
2017-04-18T09:36:56.761Z,928.03
2017-04-18T09:38:10.729Z,927.97
2017-04-18T09:39:24.127Z,928.05
2017-04-18T09:40:37.502Z,927.97
2017-04-18T09:41:51.448Z,928.12
2017-04-18T09:43:05.445Z,928.09
2017-04-18T09:44:18.818Z,928.14
2017-04-18T09:45:32.196Z,928.07
2017-04-18T09:46:46.223Z,928.14
2017-04-18T09:48:00.165Z,928.19
2017-04-18T09:49:13.560Z,928.19
2017-04-18T09:50:25.849Z,928.21
2017-04-18T09:51:39.862Z,928.29
2017-04-18T09:52:53.776Z,928.3
2017-04-18T09:54:06.600Z,928.27
2017-04-18T09:55:20.559Z,928.31
2017-04-18T09:56:34.483Z,928.32
2017-04-18T09:57:47.910Z,928.32
2017-04-18T09:59:01.862Z,928.35
2017-04-18T10:00:15.808Z,928.37
2017-04-18T10:01:29.729Z,928.41
2017-04-18T10:02:43.651Z,928.39
2017-04-18T10:03:57.606Z,928.3
2017-04-18T10:05:11.006Z,928.42
2017-04-18T10:06:24.957Z,928.44
2017-04-18T10:07:38.878Z,928.37
2017-04-18T10:08:52.851Z,928.46
2017-04-18T10:10:06.227Z,928.37
2017-04-18T10:11:20.152Z,928.45
2017-04-18T10:12:33.595Z,928.51
2017-04-18T10:13:46.415Z,928.54
2017-04-18T10:14:59.219Z,928.59
2017-04-18T10:16:12.609Z,928.46
2017-04-18T10:17:25.471Z,928.58
2017-04-18T10:18:38.853Z,928.61
2017-04-18T10:19:52.823Z,928.62
2017-04-18T10:21:06.207Z,928.63
2017-04-18T10:22:19.595Z,928.73
2017-04-18T10:23:33.565Z,928.74
2017-04-18T10:24:47.526Z,928.72
2017-04-18T10:26:01.478Z,928.76
2017-04-18T10:27:15.615Z,928.81
2017-04-18T10:28:29.511Z,928.78
2017-04-18T10:29:42.908Z,928.87
2017-04-18T10:30:55.731Z,928.93
2017-04-18T10:32:09.702Z,928.95
2017-04-18T10:33:22.528Z,928.95
2017-04-18T10:34:36.465Z,929
2017-04-18T10:35:49.282Z,929.03
2017-04-18T10:37:03.234Z,929.03
2017-04-18T10:38:17.163Z,929.05
2017-04-18T10:39:30.718Z,929.06
2017-04-18T10:40:44.624Z,929.07
2017-04-18T10:41:58.250Z,929.09
2017-04-18T10:43:12.183Z,929.11
2017-04-18T10:44:25.594Z,929
2017-04-18T10:45:39.575Z,929.03
2017-04-18T10:46:52.394Z,929.16
2017-04-18T10:48:05.213Z,929.14
2017-04-18T10:49:18.034Z,929.05
2017-04-18T10:50:31.970Z,929.19
2017-04-18T10:51:45.371Z,929.25
2017-04-18T10:52:59.305Z,929.27
2017-04-18T10:54:13.248Z,929.28
2017-04-18T10:55:26.614Z,929.27
2017-04-18T10:56:40.009Z,929.2
2017-04-18T10:57:54.022Z,929.28
2017-04-18T10:59:07.953Z,929.26
2017-04-18T11:00:21.952Z,929.28
2017-04-18T11:01:35.934Z,929.3
2017-04-18T11:02:49.867Z,929.24
2017-04-18T11:04:03.846Z,929.4
2017-04-18T11:05:16.108Z,929.43
2017-04-18T11:06:29.485Z,929.33
2017-04-18T11:07:43.433Z,929.49
2017-04-18T11:08:56.848Z,929.55
2017-04-18T11:10:10.817Z,929.49
2017-04-18T11:11:23.684Z,929.59
2017-04-18T11:12:36.510Z,929.54
2017-04-18T11:13:49.343Z,929.64
2017-04-18T11:15:02.232Z,929.55
2017-04-18T11:16:14.495Z,929.51
2017-04-18T11:17:28.404Z,929.53
2017-04-18T11:18:42.598Z,929.54
2017-04-18T11:19:55.470Z,929.58
2017-04-18T11:21:08.858Z,929.58
2017-04-18T11:22:22.405Z,929.62
2017-04-18T11:23:36.345Z,929.66
2017-04-18T11:24:49.790Z,929.69
2017-04-18T11:26:03.816Z,929.76
2017-04-18T11:27:17.200Z,929.75
2017-04-18T11:28:30.607Z,929.78
2017-04-18T11:29:44.601Z,929.78
2017-04-18T11:30:58.619Z,929.72
2017-04-18T11:32:12.019Z,929.83
2017-04-18T11:33:25.973Z,929.74
2017-04-18T11:34:39.941Z,929.82
2017-04-18T11:35:53.885Z,929.79
2017-04-18T11:37:07.272Z,929.84
2017-04-18T11:38:21.183Z,929.91
2017-04-18T11:39:34.625Z,929.85
2017-04-18T11:40:48.014Z,929.9
2017-04-18T11:42:00.839Z,929.78
2017-04-18T11:43:14.800Z,929.83
2017-04-18T11:44:28.207Z,929.92
2017-04-18T11:45:42.168Z,929.87
2017-04-18T11:46:55.014Z,929.97
2017-04-18T11:48:08.964Z,929.99
2017-04-18T11:49:22.897Z,929.99
2017-04-18T11:50:36.329Z,930.01
2017-04-18T11:51:49.179Z,930.03
2017-04-18T11:53:02.812Z,930.07
2017-04-18T11:54:16.224Z,930.11
2017-04-18T11:55:30.152Z,929.97
2017-04-18T11:56:42.959Z,929.95
2017-04-18T11:57:56.975Z,930.16
2017-04-18T11:59:11.200Z,930.25
2017-04-18T12:00:24.598Z,930.14
2017-04-18T12:01:38.564Z,930.25
2017-04-18T12:02:52.514Z,930.24
2017-04-18T12:04:05.925Z,930.17
2017-04-18T12:05:19.327Z,930.27
2017-04-18T12:06:32.683Z,930.13
2017-04-18T12:07:46.791Z,930.34
2017-04-18T12:08:59.101Z,930.21
2017-04-18T12:10:12.030Z,930.29
2017-04-18T12:11:25.386Z,930.36
2017-04-18T12:12:38.779Z,930.41
2017-04-18T12:13:52.760Z,930.44
2017-04-18T12:15:06.132Z,930.5
2017-04-18T12:16:19.531Z,930.46
2017-04-18T12:17:33.483Z,930.49
2017-04-18T12:18:46.882Z,930.48
2017-04-18T12:20:00.353Z,930.48
2017-04-18T12:21:13.746Z,930.49
2017-04-18T12:22:27.718Z,930.5
2017-04-18T12:23:41.105Z,930.48
2017-04-18T12:24:54.522Z,930.5
2017-04-18T12:26:08.510Z,930.25
2017-04-18T12:27:21.932Z,930.47
2017-04-18T12:28:35.891Z,930.49
2017-04-18T12:29:49.867Z,930.48
2017-04-18T12:31:02.688Z,930.39
2017-04-18T12:32:16.773Z,930.46
2017-04-18T12:33:30.142Z,930.46
2017-04-18T12:34:44.075Z,930.42
2017-04-18T12:35:58.045Z,930.53
2017-04-18T12:37:11.650Z,930.52
2017-04-18T12:38:24.488Z,930.41
2017-04-18T12:39:38.424Z,930.45
2017-04-18T12:40:51.342Z,930.41
2017-04-18T12:42:05.289Z,930.48
2017-04-18T12:43:17.566Z,930.54
2017-04-18T12:44:29.833Z,930.48
2017-04-18T12:45:43.230Z,930.57
2017-04-18T12:46:57.153Z,930.59
2017-04-18T12:48:09.997Z,930.48
2017-04-18T12:49:23.563Z,930.48
2017-04-18T12:50:36.991Z,930.52
2017-04-18T12:51:50.936Z,930.54
2017-04-18T12:53:04.348Z,930.39
2017-04-18T12:54:18.329Z,930.4
2017-04-18T12:55:32.257Z,930.46
2017-04-18T12:56:45.076Z,930.45
2017-04-18T12:57:57.918Z,930.44
2017-04-18T12:59:11.339Z,930.4
2017-04-18T13:00:25.254Z,930.35
2017-04-18T13:01:39.404Z,930.44
2017-04-18T13:02:53.051Z,930.29
2017-04-18T13:04:04.800Z,930.38
2017-04-18T13:05:18.204Z,930.29
2017-04-18T13:06:31.576Z,930.3
2017-04-18T13:07:43.812Z,930.33
2017-04-18T13:08:57.159Z,930.24
2017-04-18T13:10:09.986Z,930.31
2017-04-18T13:11:23.380Z,930.17
2017-04-18T13:12:36.769Z,930.27
2017-04-18T13:13:48.475Z,930.21
2017-04-18T13:15:01.885Z,930.23
2017-04-18T13:16:14.710Z,930.31
2017-04-18T13:17:27.744Z,930.31
2017-04-18T13:18:41.730Z,930.31
2017-04-18T13:19:54.726Z,930.29
2017-04-18T13:21:08.143Z,930.29
2017-04-18T13:22:22.132Z,930.27
2017-04-18T13:23:33.266Z,930.24
2017-04-18T13:24:44.986Z,930.15
2017-04-18T13:25:57.810Z,930.17
2017-04-18T13:27:10.622Z,930.08
2017-04-18T13:28:24.631Z,930.27
2017-04-18T13:29:37.435Z,930.3
2017-04-18T13:30:49.829Z,930.33
2017-04-18T13:32:03.214Z,930.36
2017-04-18T13:33:14.927Z,930.19
2017-04-18T13:34:26.670Z,930.22
2017-04-18T13:35:40.077Z,930.16
2017-04-18T13:36:54.053Z,930.19
2017-04-18T13:38:07.430Z,930.17
2017-04-18T13:39:21.413Z,930.24
2017-04-18T13:40:35.373Z,930.22
2017-04-18T13:41:48.797Z,930.2
2017-04-18T13:43:01.663Z,930.19
2017-04-18T13:44:12.857Z,930.21
2017-04-18T13:45:25.709Z,930.25
2017-04-18T13:46:36.946Z,930.2
2017-04-18T13:47:50.408Z,930.09
2017-04-18T13:49:03.353Z,930.13
2017-04-18T13:50:16.185Z,930.09
2017-04-18T13:51:29.602Z,930.07
2017-04-18T13:52:42.990Z,929.95
2017-04-18T13:53:54.678Z,930.11
2017-04-18T13:55:06.963Z,930.13
2017-04-18T13:56:19.269Z,930.16
2017-04-18T13:57:30.983Z,930.09
2017-04-18T13:58:44.927Z,930.05
2017-04-18T13:59:58.317Z,930.03
2017-04-18T14:01:11.372Z,930.03
2017-04-18T14:02:24.774Z,929.9
2017-04-18T14:03:36.113Z,930.04
2017-04-18T14:04:48.932Z,930.01
2017-04-18T14:06:00.249Z,929.98
2017-04-18T14:07:12.574Z,929.88
2017-04-18T14:08:25.451Z,929.85
2017-04-18T14:09:38.852Z,929.84
2017-04-18T14:10:52.795Z,929.94
2017-04-18T14:12:06.787Z,929.84
2017-04-18T14:13:20.749Z,929.92
2017-04-18T14:14:34.727Z,929.91
2017-04-18T14:15:48.688Z,929.9
2017-04-18T14:17:02.642Z,929.88
2017-04-18T14:18:16.630Z,929.83
2017-04-18T14:19:30.098Z,929.69
2017-04-18T14:20:44.034Z,929.76
2017-04-18T14:21:58.018Z,929.85
2017-04-18T14:23:11.411Z,929.89
2017-04-18T14:24:24.822Z,929.86
2017-04-18T14:25:38.747Z,929.91
2017-04-18T14:26:52.756Z,929.91
2017-04-18T14:28:06.709Z,929.97
2017-04-18T14:29:20.432Z,929.9
2017-04-18T14:30:34.421Z,929.97
2017-04-18T14:31:47.867Z,929.95
2017-04-18T14:33:01.271Z,929.93
2017-04-18T14:34:15.246Z,929.9
2017-04-18T14:35:29.165Z,929.87
2017-04-18T14:36:42.537Z,929.83
2017-04-18T14:37:56.450Z,929.85
2017-04-18T14:39:10.389Z,929.84
2017-04-18T14:40:24.368Z,929.82
2017-04-18T14:41:37.766Z,929.85
2017-04-18T14:42:51.706Z,929.79
2017-04-18T14:44:05.118Z,929.85
2017-04-18T14:45:19.114Z,929.77
2017-04-18T14:46:32.493Z,929.77
2017-04-18T14:47:45.889Z,929.7
2017-04-18T14:48:59.844Z,929.68
2017-04-18T14:50:13.770Z,929.62
2017-04-18T14:51:27.735Z,929.61
2017-04-18T14:52:41.164Z,929.67
2017-04-18T14:53:55.184Z,929.68
2017-04-18T14:55:08.605Z,929.65
2017-04-18T14:56:22.107Z,929.68
2017-04-18T14:57:36.068Z,929.66
2017-04-18T14:58:50.048Z,929.66
2017-04-18T15:00:04.002Z,929.62
2017-04-18T15:01:17.987Z,929.6
2017-04-18T15:02:31.953Z,929.62
2017-04-18T15:03:45.385Z,929.29
2017-04-18T15:04:59.330Z,929.59
2017-04-18T15:06:13.302Z,929.54
2017-04-18T15:07:26.168Z,929.58
2017-04-18T15:08:40.138Z,929.59
2017-04-18T15:09:54.081Z,929.5
2017-04-18T15:11:07.632Z,929.36
2017-04-18T15:12:21.001Z,929.51
2017-04-18T15:13:35.053Z,929.4
2017-04-18T15:14:48.465Z,929.39